createdAt,value
2022-08-24T00:01:13.067Z,19.10
2022-08-24T00:03:41.204Z,19.10
2022-08-24T00:06:19.447Z,19.10
2022-08-24T00:08:49.271Z,19.10
2022-08-24T00:11:17.511Z,19.10
2022-08-24T00:13:45.040Z,19.20
2022-08-24T00:16:12.852Z,19.20
2022-08-24T00:18:40.301Z,19.20
2022-08-24T00:21:08.174Z,19.10
2022-08-24T00:23:36.539Z,19.20
2022-08-24T00:26:04.500Z,19.10
2022-08-24T00:28:31.732Z,19.10
2022-08-24T00:30:59.086Z,19.10
2022-08-24T00:33:26.533Z,19.20
2022-08-24T00:35:53.662Z,19.10
2022-08-24T00:38:20.897Z,19.10
2022-08-24T00:40:49.392Z,19.00
2022-08-24T00:43:22.879Z,19.00
2022-08-24T00:46:04.274Z,19.00
2022-08-24T00:48:37.330Z,19.00
2022-08-24T00:51:16.517Z,19.00
2022-08-24T00:53:49.063Z,18.90
2022-08-24T00:56:23.514Z,18.90
2022-08-24T00:58:59.311Z,19.00
2022-08-24T01:01:28.562Z,19.00
2022-08-24T01:03:58.248Z,19.00
2022-08-24T01:06:25.905Z,19.00
2022-08-24T01:08:56.382Z,19.00
2022-08-24T01:11:30.558Z,19.00
2022-08-24T01:14:02.992Z,19.10
2022-08-24T01:16:49.292Z,19.10
2022-08-24T01:19:37.249Z,19.10
2022-08-24T01:22:41.766Z,19.00
2022-08-24T01:25:10.226Z,19.00
2022-08-24T01:27:39.133Z,19.00
2022-08-24T01:30:12.206Z,18.90
2022-08-24T01:32:40.987Z,18.90
2022-08-24T01:35:09.099Z,18.90
2022-08-24T01:37:36.816Z,18.90
2022-08-24T01:40:10.923Z,18.90
2022-08-24T01:42:38.789Z,19.00
2022-08-24T01:45:06.599Z,18.90
2022-08-24T01:47:34.853Z,18.90
2022-08-24T01:50:02.661Z,18.90
2022-08-24T01:52:43.469Z,18.90
2022-08-24T01:55:19.927Z,18.90
2022-08-24T01:57:49.898Z,18.90
2022-08-24T02:00:17.390Z,18.90
2022-08-24T02:02:45.843Z,19.00
2022-08-24T02:05:15.667Z,19.00
2022-08-24T02:07:45.979Z,19.00
2022-08-24T02:10:14.772Z,19.00
2022-08-24T02:12:47.067Z,19.00
2022-08-24T02:15:14.459Z,18.90
2022-08-24T02:17:41.569Z,18.90
2022-08-24T02:20:09.613Z,18.80
2022-08-24T02:22:38.019Z,18.90
2022-08-24T02:25:05.362Z,18.90
2022-08-24T02:27:32.378Z,18.80
2022-08-24T02:29:59.676Z,18.80
2022-08-24T02:32:26.722Z,18.80
2022-08-24T02:34:54.858Z,18.80
2022-08-24T02:37:22.714Z,18.80
2022-08-24T02:39:49.794Z,18.80
2022-08-24T02:42:19.239Z,18.80
2022-08-24T02:44:46.616Z,18.80
2022-08-24T02:47:17.610Z,18.80
2022-08-24T02:49:44.779Z,18.90
2022-08-24T02:52:12.308Z,18.80
2022-08-24T02:54:39.742Z,18.80
2022-08-24T02:57:07.903Z,18.80
2022-08-24T02:59:35.542Z,18.80
2022-08-24T03:02:03.644Z,18.80
2022-08-24T03:04:30.812Z,18.70
2022-08-24T03:07:00.590Z,18.80
2022-08-24T03:09:28.856Z,18.80
2022-08-24T03:11:57.937Z,18.70
2022-08-24T03:14:25.571Z,18.80
2022-08-24T03:16:53.591Z,18.70
2022-08-24T03:19:22.244Z,18.80
2022-08-24T03:21:49.910Z,18.70
2022-08-24T03:24:17.079Z,18.70
2022-08-24T03:26:45.259Z,18.70
2022-08-24T03:29:15.863Z,18.70
2022-08-24T03:31:44.154Z,18.70
2022-08-24T03:34:13.509Z,18.70
2022-08-24T03:36:46.566Z,18.70
2022-08-24T03:39:16.372Z,18.70
2022-08-24T03:41:44.027Z,18.60
2022-08-24T03:44:11.065Z,18.60
2022-08-24T03:46:38.982Z,18.60
2022-08-24T03:49:08.700Z,18.60
2022-08-24T03:51:37.629Z,18.70
2022-08-24T03:54:08.813Z,18.70
2022-08-24T03:56:36.677Z,18.70
2022-08-24T03:59:04.536Z,18.80
2022-08-24T04:01:38.442Z,18.80
2022-08-24T04:04:06.257Z,18.80
2022-08-24T04:06:36.118Z,18.80
2022-08-24T04:09:04.714Z,18.80
2022-08-24T04:11:39.404Z,18.80
2022-08-24T04:14:08.777Z,18.80
2022-08-24T04:16:58.922Z,18.90
2022-08-24T04:19:33.443Z,18.80
2022-08-24T04:22:00.878Z,18.90
2022-08-24T04:24:28.498Z,18.90
2022-08-24T04:26:56.453Z,18.90
2022-08-24T04:29:26.087Z,18.90
2022-08-24T04:31:53.918Z,19.00
2022-08-24T04:47:14.502Z,19.10
2022-08-24T04:49:42.154Z,19.20
2022-08-24T04:52:10.002Z,19.20
2022-08-24T04:54:37.676Z,19.30
2022-08-24T04:57:14.719Z,19.30
2022-08-24T04:59:46.421Z,19.30
2022-08-24T05:02:13.845Z,19.30
2022-08-24T05:04:41.102Z,19.30
2022-08-24T05:07:08.843Z,19.40
2022-08-24T05:09:36.257Z,19.50
2022-08-24T05:12:04.247Z,19.50
2022-08-24T05:14:37.609Z,19.50
2022-08-24T05:17:04.949Z,19.60
2022-08-24T05:19:36.420Z,19.60
2022-08-24T05:22:03.891Z,19.60
2022-08-24T05:24:31.337Z,19.60
2022-08-24T05:27:00.413Z,19.50
2022-08-24T05:29:28.111Z,19.70
2022-08-24T05:31:58.266Z,20.10
2022-08-24T05:34:26.138Z,20.40
2022-08-24T05:36:53.347Z,20.40
2022-08-24T05:39:48.763Z,20.40
2022-08-24T05:42:15.897Z,20.70
2022-08-24T05:44:48.078Z,20.90
2022-08-24T05:47:19.807Z,21.10
2022-08-24T05:49:48.520Z,21.10
2022-08-24T05:52:16.442Z,21.40
2022-08-24T05:54:45.915Z,21.50
2022-08-24T05:57:16.501Z,21.70
2022-08-24T06:00:00.880Z,21.80
2022-08-24T06:02:29.203Z,21.80
2022-08-24T06:04:56.534Z,21.70
2022-08-24T06:07:23.826Z,22.00
2022-08-24T06:10:06.312Z,22.60
2022-08-24T06:12:42.911Z,23.10
2022-08-24T06:15:11.442Z,23.40
2022-08-24T06:17:39.378Z,24.30
2022-08-24T06:20:07.587Z,25.60
2022-08-24T06:22:34.661Z,26.70
2022-08-24T06:25:20.421Z,27.50
2022-08-24T06:27:47.937Z,28.70
2022-08-24T06:30:15.474Z,29.10
2022-08-24T06:33:02.570Z,29.50
2022-08-24T06:35:42.420Z,30.70
2022-08-24T06:38:12.115Z,31.60
2022-08-24T06:40:39.601Z,32.00
2022-08-24T06:43:06.911Z,32.30
2022-08-24T06:45:45.082Z,32.40
2022-08-24T06:48:13.973Z,32.70
2022-08-24T06:50:41.790Z,33.00
2022-08-24T06:53:10.018Z,33.50
2022-08-24T06:55:37.262Z,33.60
2022-08-24T06:58:04.399Z,33.30
2022-08-24T07:00:31.879Z,33.30
2022-08-24T07:02:59.049Z,32.70
2022-08-24T07:05:27.486Z,32.20
2022-08-24T07:08:20.402Z,31.30
2022-08-24T07:10:47.761Z,30.10
2022-08-24T07:13:15.575Z,29.40
2022-08-24T07:15:44.098Z,28.80
2022-08-24T07:18:15.756Z,28.20
2022-08-24T07:20:47.887Z,28.00
2022-08-24T07:23:21.415Z,27.80
2022-08-24T07:25:52.135Z,27.60
2022-08-24T07:28:27.722Z,27.40
2022-08-24T07:31:00.021Z,27.20
2022-08-24T07:33:27.841Z,27.00
2022-08-24T07:35:56.465Z,26.70
2022-08-24T07:38:24.732Z,26.50
2022-08-24T07:41:20.188Z,26.50
2022-08-24T07:43:43.077Z,26.50
2022-08-24T07:46:10.821Z,26.10
2022-08-24T07:48:38.369Z,25.90
2022-08-24T07:51:15.154Z,25.70
2022-08-24T07:53:53.576Z,25.60
2022-08-24T07:56:28.482Z,25.30
2022-08-24T07:58:56.892Z,25.10
2022-08-24T08:01:24.726Z,25.10
2022-08-24T08:03:53.698Z,25.20
2022-08-24T08:06:21.978Z,25.30
2022-08-24T08:08:54.496Z,25.50
2022-08-24T08:11:21.747Z,25.70
2022-08-24T08:13:49.189Z,25.90
2022-08-24T08:16:17.033Z,25.90
2022-08-24T08:18:45.581Z,25.60
2022-08-24T08:21:32.822Z,25.50
2022-08-24T08:24:21.141Z,25.60
2022-08-24T08:26:52.213Z,25.50
2022-08-24T08:29:33.362Z,25.40
2022-08-24T08:32:01.256Z,25.40
2022-08-24T08:34:31.250Z,25.50
2022-08-24T08:36:59.519Z,25.60
2022-08-24T08:39:27.984Z,25.60
2022-08-24T08:42:25.682Z,25.70
2022-08-24T08:45:09.639Z,25.70
2022-08-24T08:47:58.957Z,25.70
2022-08-24T08:50:40.426Z,25.80
2022-08-24T08:53:16.613Z,25.80
2022-08-24T08:56:00.544Z,25.70
2022-08-24T08:58:57.235Z,25.60
2022-08-24T09:02:20.660Z,25.70
2022-08-24T09:05:00.077Z,25.70
2022-08-24T09:07:48.952Z,25.80
2022-08-24T09:10:30.056Z,25.70
2022-08-24T09:13:22.782Z,25.70
2022-08-24T09:16:11.514Z,25.80
2022-08-24T09:18:58.005Z,25.80
2022-08-24T09:21:25.312Z,25.70
2022-08-24T09:24:04.748Z,25.70
2022-08-24T09:26:48.329Z,25.70
2022-08-24T09:29:33.150Z,25.60
2022-08-24T09:32:30.629Z,25.70
2022-08-24T09:35:04.155Z,25.80
2022-08-24T09:37:51.851Z,25.80
2022-08-24T09:40:43.157Z,25.80
2022-08-24T09:43:59.249Z,25.80
2022-08-24T09:47:15.570Z,25.90
2022-08-24T09:50:03.666Z,25.80
2022-08-24T09:53:09.122Z,25.90
2022-08-24T09:56:00.358Z,26.10
2022-08-24T09:58:39.408Z,25.90
2022-08-24T10:01:28.411Z,25.70
2022-08-24T10:04:14.701Z,25.70
2022-08-24T10:07:00.666Z,25.70
2022-08-24T10:09:30.476Z,25.90
2022-08-24T10:12:26.134Z,25.90
2022-08-24T10:15:11.053Z,26.00
2022-08-24T10:18:17.993Z,26.10
2022-08-24T10:21:03.717Z,26.20
2022-08-24T10:24:08.796Z,26.20
2022-08-24T10:27:01.455Z,26.40
2022-08-24T10:29:38.114Z,26.50
2022-08-24T10:32:10.832Z,26.60
2022-08-24T10:34:41.146Z,26.70
2022-08-24T10:37:29.785Z,26.90
2022-08-24T10:40:12.201Z,27.00
2022-08-24T10:43:35.580Z,26.90
2022-08-24T10:46:23.845Z,26.70
2022-08-24T10:49:09.322Z,26.60
2022-08-24T10:52:04.958Z,26.50
2022-08-24T10:54:35.488Z,26.50
2022-08-24T10:57:26.642Z,26.50
2022-08-24T11:00:06.386Z,26.60
2022-08-24T11:02:37.199Z,26.70
2022-08-24T11:05:28.881Z,26.70
2022-08-24T11:08:07.079Z,26.80
2022-08-24T11:10:39.523Z,26.90
2022-08-24T11:13:26.740Z,26.90
2022-08-24T11:16:00.194Z,26.80
2022-08-24T11:18:49.862Z,26.80
2022-08-24T11:21:32.238Z,26.90
2022-08-24T11:24:07.667Z,27.00
2022-08-24T11:27:02.729Z,27.20
2022-08-24T11:29:49.918Z,27.30
2022-08-24T11:32:39.425Z,27.40
2022-08-24T11:35:16.031Z,27.60
2022-08-24T11:37:43.727Z,27.80
2022-08-24T11:40:12.331Z,28.10
2022-08-24T11:42:53.550Z,28.20
2022-08-24T11:45:35.198Z,28.20
2022-08-24T11:48:26.840Z,28.30
2022-08-24T11:51:30.648Z,28.40
2022-08-24T11:54:19.357Z,28.50
2022-08-24T11:56:58.593Z,28.60
2022-08-24T11:59:57.070Z,28.80
2022-08-24T12:02:41.964Z,29.10
2022-08-24T12:05:21.202Z,29.30
2022-08-24T12:08:12.571Z,29.50
2022-08-24T12:10:49.236Z,29.60
2022-08-24T12:13:33.566Z,29.50
2022-08-24T12:16:10.525Z,29.70
2022-08-24T12:19:02.197Z,29.60
2022-08-24T12:21:32.677Z,29.50
2022-08-24T12:24:03.299Z,29.60
2022-08-24T12:26:38.568Z,29.70
2022-08-24T12:29:29.167Z,30.00
2022-08-24T12:32:21.520Z,30.10
2022-08-24T12:35:05.324Z,30.00
2022-08-24T12:37:35.222Z,30.00
2022-08-24T12:40:24.277Z,30.00
2022-08-24T12:43:12.445Z,29.90
2022-08-24T12:45:40.704Z,30.00
2022-08-24T12:48:35.510Z,29.90
2022-08-24T12:51:51.630Z,29.70
2022-08-24T12:54:21.448Z,29.50
2022-08-24T12:57:10.134Z,29.60
2022-08-24T12:59:52.597Z,29.60
2022-08-24T13:02:19.989Z,29.50
2022-08-24T13:04:50.058Z,29.40
2022-08-24T13:07:40.001Z,29.40
2022-08-24T13:10:15.897Z,29.30
2022-08-24T13:12:43.616Z,29.40
2022-08-24T13:15:23.468Z,29.50
2022-08-24T13:17:55.713Z,29.60
2022-08-24T13:20:36.891Z,29.60
2022-08-24T13:23:13.175Z,29.50
2022-08-24T13:26:11.745Z,29.40
2022-08-24T13:28:47.252Z,29.30
2022-08-24T13:31:20.683Z,29.40
2022-08-24T13:33:57.300Z,29.30
2022-08-24T13:36:47.182Z,29.30
2022-08-24T13:39:36.294Z,29.30
2022-08-24T13:42:15.373Z,29.20
2022-08-24T13:44:57.335Z,29.70
2022-08-24T13:47:46.935Z,29.30
2022-08-24T13:50:31.743Z,29.30
2022-08-24T13:53:08.260Z,29.30
2022-08-24T13:55:52.323Z,29.30
2022-08-24T13:58:34.777Z,29.30
2022-08-24T14:01:23.851Z,29.30
2022-08-24T14:04:04.653Z,29.30
2022-08-24T14:06:38.202Z,29.40
2022-08-24T14:09:15.449Z,29.40
2022-08-24T14:11:51.488Z,29.30
2022-08-24T14:14:51.353Z,29.30
2022-08-24T14:17:53.713Z,29.30
2022-08-24T14:20:30.811Z,29.20
2022-08-24T14:23:22.841Z,29.10
2022-08-24T14:25:51.738Z,29.10
2022-08-24T14:28:33.713Z,29.00
2022-08-24T14:31:28.101Z,28.90
2022-08-24T14:34:13.392Z,28.90
2022-08-24T14:37:14.793Z,28.90
2022-08-24T14:40:02.910Z,28.90
2022-08-24T14:42:57.216Z,28.90
2022-08-24T14:45:51.767Z,28.80
2022-08-24T14:48:32.751Z,28.70
2022-08-24T14:51:15.806Z,28.70
2022-08-24T14:53:51.117Z,28.60
2022-08-24T14:56:58.870Z,28.60
2022-08-24T14:59:50.250Z,28.60
2022-08-24T15:02:29.494Z,28.50
2022-08-24T15:05:11.535Z,28.50
2022-08-24T15:07:38.742Z,28.50
2022-08-24T15:10:14.930Z,28.50
2022-08-24T15:12:54.162Z,28.50
2022-08-24T15:15:31.259Z,28.50
2022-08-24T15:18:13.455Z,28.50
2022-08-24T15:21:06.459Z,28.50
2022-08-24T15:23:59.334Z,28.30
2022-08-24T15:26:49.893Z,28.30
2022-08-24T15:29:21.150Z,28.20
2022-08-24T15:32:04.080Z,28.10
2022-08-24T15:34:34.617Z,28.00
2022-08-24T15:37:02.126Z,27.90
2022-08-24T15:39:30.250Z,27.80
2022-08-24T15:41:58.171Z,27.70
2022-08-24T15:44:31.603Z,27.70
2022-08-24T15:47:15.107Z,27.50
2022-08-24T15:49:47.872Z,27.40
2022-08-24T15:52:41.298Z,27.30
2022-08-24T15:55:35.611Z,27.20
2022-08-24T15:58:33.424Z,27.10
2022-08-24T16:01:41.753Z,27.00
2022-08-24T16:04:08.825Z,26.80
2022-08-24T16:06:40.855Z,26.90
2022-08-24T16:09:27.773Z,26.80
2022-08-24T16:12:13.703Z,26.70
2022-08-24T16:14:46.833Z,26.70
2022-08-24T16:17:20.289Z,26.60
2022-08-24T16:19:54.072Z,26.60
2022-08-24T16:22:34.748Z,26.50
2022-08-24T16:25:13.534Z,26.50
2022-08-24T16:28:09.946Z,26.50
2022-08-24T16:30:54.700Z,26.40
2022-08-24T16:33:31.268Z,26.30
2022-08-24T16:35:59.578Z,26.30
2022-08-24T16:38:29.339Z,26.20
2022-08-24T16:41:01.619Z,26.20
2022-08-24T16:43:29.878Z,26.10
2022-08-24T16:45:58.392Z,26.10
2022-08-24T16:48:25.499Z,26.00
2022-08-24T16:50:52.828Z,25.90
2022-08-24T16:53:20.182Z,25.90
2022-08-24T16:55:48.797Z,25.80
2022-08-24T16:58:16.540Z,25.70
2022-08-24T17:00:45.797Z,25.70
2022-08-24T17:03:15.148Z,24.70
2022-08-24T17:05:43.775Z,25.60
2022-08-24T17:08:11.438Z,25.50
2022-08-24T17:10:38.776Z,25.50
2022-08-24T17:13:06.123Z,25.40
2022-08-24T17:15:33.862Z,25.40
2022-08-24T17:18:06.779Z,25.30
2022-08-24T17:20:34.394Z,25.30
2022-08-24T17:23:02.053Z,25.20
2022-08-24T17:25:30.239Z,25.10
2022-08-24T17:27:59.479Z,25.00
2022-08-24T17:30:30.846Z,25.00
2022-08-24T17:33:02.114Z,24.90
2022-08-24T17:35:29.866Z,24.80
2022-08-24T17:37:57.957Z,24.70
2022-08-24T17:40:26.954Z,24.70
2022-08-24T17:42:54.183Z,24.60
2022-08-24T17:45:22.978Z,24.50
2022-08-24T17:47:50.928Z,24.40
2022-08-24T17:50:19.888Z,24.90
2022-08-24T17:52:47.637Z,24.30
2022-08-24T17:55:17.177Z,24.20
2022-08-24T17:57:51.656Z,24.20
2022-08-24T18:00:19.025Z,24.10
2022-08-24T18:02:46.736Z,24.00
2022-08-24T18:05:14.940Z,23.90
2022-08-24T18:07:53.521Z,23.90
2022-08-24T18:10:28.292Z,23.80
2022-08-24T18:13:00.232Z,23.80
2022-08-24T18:15:33.658Z,23.70
2022-08-24T18:18:08.888Z,23.60
2022-08-24T18:20:39.058Z,23.60
2022-08-24T18:23:11.631Z,23.50
2022-08-24T18:25:48.815Z,23.40
2022-08-24T18:28:17.814Z,23.40
2022-08-24T18:30:45.324Z,23.40
2022-08-24T18:33:13.109Z,23.30
2022-08-24T18:35:40.501Z,23.30
2022-08-24T18:38:07.624Z,23.20
2022-08-24T18:40:35.060Z,23.20
2022-08-24T18:43:04.188Z,23.20
2022-08-24T18:45:33.427Z,23.10
2022-08-24T18:48:02.151Z,23.00
2022-08-24T18:50:29.761Z,23.00
2022-08-24T18:52:58.743Z,23.00
2022-08-24T18:55:26.888Z,22.90
2022-08-24T18:57:54.405Z,22.90
2022-08-24T19:00:22.911Z,22.80
2022-08-24T19:02:50.411Z,22.90
2022-08-24T19:05:23.998Z,23.50
2022-08-24T19:07:54.408Z,22.80
2022-08-24T19:10:27.214Z,22.70
2022-08-24T19:13:02.200Z,22.70
2022-08-24T19:15:39.235Z,22.70
2022-08-24T19:18:10.412Z,22.70
2022-08-24T19:20:44.686Z,22.70
2022-08-24T19:23:22.811Z,22.60
2022-08-24T19:25:50.826Z,22.60
2022-08-24T19:28:18.218Z,22.60
2022-08-24T19:30:46.755Z,22.60
2022-08-24T19:33:24.954Z,22.60
2022-08-24T19:35:52.431Z,22.60
2022-08-24T19:38:24.808Z,22.60
2022-08-24T19:40:55.328Z,22.50
2022-08-24T19:43:23.930Z,22.50
2022-08-24T19:46:05.216Z,22.50
2022-08-24T19:48:34.841Z,22.70
2022-08-24T19:51:04.309Z,22.40
2022-08-24T19:53:34.396Z,22.40
2022-08-24T19:56:03.976Z,22.30
2022-08-24T19:58:51.980Z,22.30
2022-08-24T20:01:28.138Z,22.30
2022-08-24T20:03:56.481Z,22.20
2022-08-24T20:06:24.967Z,22.20
2022-08-24T20:08:52.878Z,22.10
2022-08-24T20:11:20.878Z,22.10
2022-08-24T20:13:53.694Z,22.00
2022-08-24T20:16:22.976Z,22.00
2022-08-24T20:18:50.454Z,22.00
2022-08-24T20:21:18.641Z,21.90
2022-08-24T20:23:45.923Z,21.90
2022-08-24T20:26:13.692Z,21.80
2022-08-24T20:28:47.996Z,21.80
2022-08-24T20:31:16.497Z,21.80
2022-08-24T20:33:43.845Z,21.80
2022-08-24T20:36:36.696Z,21.70
2022-08-24T20:39:07.237Z,21.70
2022-08-24T20:41:35.716Z,21.70
2022-08-24T20:44:04.040Z,21.60
2022-08-24T20:46:32.387Z,21.60
2022-08-24T20:49:00.270Z,21.50
2022-08-24T20:51:27.652Z,21.60
2022-08-24T20:53:55.484Z,21.50
2022-08-24T20:56:31.404Z,21.50
2022-08-24T20:59:04.152Z,21.50
2022-08-24T21:01:32.571Z,21.40
2022-08-24T21:04:04.893Z,21.40
2022-08-24T21:06:37.715Z,21.40
2022-08-24T21:09:14.229Z,21.30
2022-08-24T21:11:48.967Z,21.30
2022-08-24T21:14:20.464Z,21.30
2022-08-24T21:19:56.555Z,21.20
2022-08-24T21:22:23.648Z,21.20
2022-08-24T21:24:52.908Z,21.70
2022-08-24T21:27:20.278Z,21.20
2022-08-24T21:29:47.384Z,21.40
2022-08-24T21:32:33.148Z,21.10
2022-08-24T21:35:00.678Z,21.20
2022-08-24T21:37:27.757Z,21.20
2022-08-24T21:39:55.598Z,21.10
2022-08-24T21:42:23.077Z,21.10
2022-08-24T21:44:50.194Z,21.10
2022-08-24T21:47:17.497Z,21.30
2022-08-24T21:49:44.767Z,21.60
2022-08-24T21:52:12.044Z,21.00
2022-08-24T21:54:39.375Z,21.00
2022-08-24T21:57:07.811Z,21.00
2022-08-24T21:59:34.922Z,21.20
2022-08-24T22:02:02.072Z,21.10
2022-08-24T22:04:29.367Z,21.10
2022-08-24T22:06:56.690Z,21.20
2022-08-24T22:09:24.035Z,21.20
2022-08-24T22:11:51.658Z,21.30
2022-08-24T22:14:19.262Z,21.30
2022-08-24T22:16:46.547Z,21.50
2022-08-24T22:19:14.041Z,21.40
2022-08-24T22:21:47.865Z,21.40
2022-08-24T22:24:16.233Z,21.40
2022-08-24T22:26:43.521Z,21.40
2022-08-24T22:29:11.426Z,21.50
2022-08-24T22:31:43.097Z,21.50
2022-08-24T22:34:15.366Z,21.50
2022-08-24T22:36:46.975Z,21.50
2022-08-24T22:39:14.065Z,21.40
2022-08-24T22:41:41.798Z,21.30
2022-08-24T22:44:21.684Z,21.10
2022-08-24T22:46:53.324Z,22.10
2022-08-24T22:49:23.707Z,21.00
2022-08-24T22:51:50.954Z,21.00
2022-08-24T22:54:18.928Z,20.80
2022-08-24T22:56:51.736Z,20.90
2022-08-24T22:59:37.411Z,20.80
2022-08-24T23:02:08.604Z,20.90
2022-08-24T23:04:38.558Z,20.80
2022-08-24T23:07:08.085Z,20.70
2022-08-24T23:09:44.023Z,20.70
2022-08-24T23:12:16.850Z,20.70
2022-08-24T23:14:44.417Z,20.50
2022-08-24T23:17:13.020Z,20.50
2022-08-24T23:19:58.699Z,20.40
2022-08-24T23:22:26.818Z,20.40
2022-08-24T23:24:54.187Z,20.80
2022-08-24T23:27:21.989Z,20.40
2022-08-24T23:29:49.525Z,20.40
2022-08-24T23:32:18.517Z,20.30
2022-08-24T23:34:48.833Z,20.30
2022-08-24T23:37:17.450Z,20.30
2022-08-24T23:39:44.946Z,20.30
2022-08-24T23:42:12.118Z,20.40
2022-08-24T23:44:39.432Z,20.30
2022-08-24T23:47:07.000Z,20.30
2022-08-24T23:49:34.498Z,20.20
2022-08-24T23:52:02.099Z,20.10
2022-08-24T23:54:29.809Z,20.10
2022-08-24T23:56:57.500Z,20.00
2022-08-24T23:59:27.885Z,20.10
